Time;durP1;ratioP1;P1;durP2;ratioP2;P2;SDS_P1;SDS_P2;PMS_P1;PMS_P2;Temp;Humidity;BMP_temperature;BMP_pressure;BME280_temperature;BME280_humidity;BME280_pressure;Samples;Min_cycle;Max_cycle;Signal;HPM_P1;HPM_P2
2022/07/07 00:01:57;;;;;;;13.13;8.13;;;16.90;99.90;;;;;;5066351;28;20040;-69
2022/07/07 00:04:23;;;;;;;11.40;8.20;;;16.90;99.90;;;;;;5089998;28;20080;-69
2022/07/07 00:06:49;;;;;;;15.88;8.43;;;16.90;99.90;;;;;;5070239;28;20045;-69
2022/07/07 00:09:15;;;;;;;11.23;7.80;;;16.90;99.90;;;;;;5070493;28;20049;-69
2022/07/07 00:11:40;;;;;;;14.40;7.45;;;16.90;99.90;;;;;;5050691;28;20388;-69
2022/07/07 00:14:08;;;;;;;14.95;7.35;;;16.90;99.90;;;;;;5083107;28;20055;-69
2022/07/07 00:16:37;;;;;;;13.63;6.75;;;16.90;99.90;;;;;;5089221;28;20044;-71
2022/07/07 00:19:04;;;;;;;12.00;6.95;;;16.90;99.90;;;;;;5062137;28;20442;-69
2022/07/07 00:21:31;;;;;;;10.88;6.97;;;16.90;99.90;;;;;;5077243;28;20445;-69
2022/07/07 00:23:57;;;;;;;13.88;6.22;;;16.90;99.90;;;;;;5077361;28;20435;-70
2022/07/07 00:26:22;;;;;;;8.88;5.90;;;17.00;99.90;;;;;;5067989;28;20041;-70
2022/07/07 00:28:49;;;;;;;12.68;6.60;;;17.10;99.90;;;;;;5069632;28;20064;-69
2022/07/07 00:31:15;;;;;;;10.35;6.20;;;16.90;99.90;;;;;;5050671;28;20135;-69
2022/07/07 00:33:41;;;;;;;12.10;6.20;;;17.00;99.90;;;;;;5057758;28;20254;-70
2022/07/07 00:36:07;;;;;;;8.90;5.93;;;17.10;99.90;;;;;;5050091;28;20060;-69
2022/07/07 00:38:34;;;;;;;11.13;5.78;;;16.90;99.90;;;;;;5050739;28;20093;-70
2022/07/07 00:41:00;;;;;;;10.23;6.03;;;16.90;99.90;;;;;;5067850;28;20044;-69
2022/07/07 00:43:26;;;;;;;9.63;5.75;;;16.90;99.90;;;;;;5073081;28;20165;-69
2022/07/07 00:45:51;;;;;;;11.52;6.05;;;16.90;99.90;;;;;;5088744;28;20115;-69
2022/07/07 00:48:18;;;;;;;9.30;6.18;;;16.90;99.90;;;;;;5088728;28;20149;-69
2022/07/07 00:50:45;;;;;;;9.45;4.47;;;16.90;99.90;;;;;;5084313;28;20040;-69
2022/07/07 00:53:11;;;;;;;7.78;3.85;;;16.80;99.90;;;;;;5051631;28;20355;-69
2022/07/07 00:55:39;;;;;;;8.35;3.60;;;16.80;99.90;;;;;;5068281;28;20174;-70
2022/07/07 00:58:05;;;;;;;10.35;3.50;;;16.70;99.90;;;;;;5050062;28;20048;-69
2022/07/07 01:00:31;;;;;;;11.02;3.55;;;16.70;99.90;;;;;;5074679;28;20039;-69
2022/07/07 01:02:57;;;;;;;7.63;3.90;;;16.80;99.90;;;;;;5067659;28;20339;-69
2022/07/07 01:05:23;;;;;;;9.73;3.65;;;16.70;99.90;;;;;;5068613;28;20114;-69
2022/07/07 01:07:51;;;;;;;6.18;3.35;;;16.70;99.90;;;;;;5050981;28;20051;-70
2022/07/07 01:10:17;;;;;;;7.18;3.83;;;16.90;99.90;;;;;;5087067;28;20396;-70
2022/07/07 01:12:42;;;;;;;8.45;3.95;;;16.70;99.90;;;;;;5088221;28;20130;-69
2022/07/07 01:15:11;;;;;;;6.88;3.70;;;16.60;99.90;;;;;;5078125;28;20037;-69
2022/07/07 01:17:37;;;;;;;8.38;3.90;;;16.60;99.90;;;;;;5068224;28;20052;-69
2022/07/07 01:20:04;;;;;;;8.30;3.67;;;16.70;99.90;;;;;;5068222;28;20040;-69
2022/07/07 01:22:33;;;;;;;8.43;3.80;;;16.70;99.90;;;;;;5064472;28;20155;-69
2022/07/07 01:25:00;;;;;;;13.60;3.78;;;16.60;99.90;;;;;;5066727;28;20043;-70
2022/07/07 01:27:25;;;;;;;8.27;4.00;;;16.80;99.90;;;;;;5050188;28;20090;-69
2022/07/07 01:29:53;;;;;;;8.80;3.85;;;16.60;99.90;;;;;;5085723;28;20040;-69
2022/07/07 01:32:20;;;;;;;10.02;3.50;;;16.60;99.90;;;;;;5088202;28;20055;-70
2022/07/07 01:34:47;;;;;;;8.73;3.67;;;16.60;99.90;;;;;;5088636;28;20040;-69
2022/07/07 01:37:13;;;;;;;7.55;3.45;;;16.60;99.90;;;;;;5077712;28;20102;-70
2022/07/07 01:39:39;;;;;;;7.60;3.90;;;16.60;99.90;;;;;;5069549;28;20561;-69
2022/07/07 01:42:06;;;;;;;8.32;3.70;;;16.60;99.90;;;;;;5066779;28;20094;-69
2022/07/07 01:44:33;;;;;;;8.88;3.88;;;16.60;99.90;;;;;;5067485;28;20146;-70
2022/07/07 01:46:58;;;;;;;12.10;3.85;;;16.60;99.90;;;;;;5084065;28;20075;-70
2022/07/07 01:49:25;;;;;;;12.88;4.15;;;16.60;99.90;;;;;;5068151;28;20088;-69
2022/07/07 01:51:51;;;;;;;11.70;4.15;;;16.60;99.90;;;;;;5066471;28;20166;-70
2022/07/07 01:54:16;;;;;;;12.57;4.57;;;16.60;99.90;;;;;;5067151;28;20476;-69
2022/07/07 01:56:42;;;;;;;10.85;4.40;;;16.50;99.90;;;;;;5066912;28;20443;-70
2022/07/07 01:59:08;;;;;;;12.57;4.28;;;16.60;99.90;;;;;;5049650;28;20045;-70
2022/07/07 02:01:34;;;;;;;13.55;4.20;;;16.50;99.90;;;;;;5056992;28;20040;-70
2022/07/07 02:04:00;;;;;;;11.63;4.18;;;16.60;99.90;;;;;;5088336;28;20052;-70
2022/07/07 02:06:26;;;;;;;13.57;4.40;;;16.50;99.90;;;;;;5086308;28;20058;-70
2022/07/07 02:08:52;;;;;;;11.60;4.70;;;17.20;99.90;;;;;;5086258;28;20083;-70
2022/07/07 02:11:18;;;;;;;12.82;4.20;;;16.60;99.90;;;;;;5069921;28;20124;-70
2022/07/07 02:13:49;;;;;;;11.43;4.20;;;16.60;99.90;;;;;;5053230;28;20408;-70
2022/07/07 02:16:17;;;;;;;13.77;4.45;;;16.60;99.90;;;;;;5090878;28;20479;-70
2022/07/07 02:18:44;;;;;;;11.60;4.32;;;16.60;99.90;;;;;;5091624;28;20052;-69
2022/07/07 02:21:12;;;;;;;11.95;4.10;;;16.60;99.90;;;;;;5092707;28;20036;-70
2022/07/07 02:23:38;;;;;;;11.63;4.30;;;16.60;99.90;;;;;;5091781;28;20496;-70
2022/07/07 02:26:04;;;;;;;13.20;4.30;;;16.60;99.90;;;;;;5089874;28;20123;-69
2022/07/07 02:28:31;;;;;;;19.60;4.38;;;17.40;99.90;;;;;;5090093;28;20455;-69
2022/07/07 02:30:57;;;;;;;10.60;3.90;;;16.90;99.90;;;;;;5091442;28;20055;-69
2022/07/07 02:33:24;;;;;;;13.02;3.72;;;16.70;99.90;;;;;;5071676;28;20052;-69
2022/07/07 02:35:51;;;;;;;11.52;3.30;;;16.60;99.90;;;;;;5093642;28;20097;-69
2022/07/07 02:38:17;;;;;;;14.18;3.33;;;16.60;99.90;;;;;;5089282;28;20047;-69
2022/07/07 02:40:42;;;;;;;11.63;3.88;;;16.60;99.90;;;;;;5055157;28;20051;-69
2022/07/07 02:43:15;;;;;;;13.35;3.47;;;16.80;99.90;;;;;;5070893;28;20417;-69
2022/07/07 02:45:42;;;;;;;12.10;3.30;;;16.60;99.90;;;;;;5071467;28;20036;-69
2022/07/07 02:48:11;;;;;;;11.07;3.03;;;16.60;99.90;;;;;;5070642;28;20044;-69
2022/07/07 02:50:37;;;;;;;10.48;3.15;;;16.70;99.90;;;;;;5056796;28;20489;-70
2022/07/07 02:53:04;;;;;;;11.52;3.47;;;16.70;99.90;;;;;;5049921;28;20088;-69
2022/07/07 02:55:30;;;;;;;14.35;3.10;;;16.60;99.90;;;;;;5060433;28;20036;-69
2022/07/07 02:57:57;;;;;;;11.43;3.50;;;16.60;99.90;;;;;;5062297;28;20101;-70
2022/07/07 03:00:23;;;;;;;9.95;3.10;;;17.30;99.90;;;;;;5073178;28;20475;-70
2022/07/07 03:02:48;;;;;;;10.85;3.08;;;16.80;99.90;;;;;;5086298;28;20497;-70
2022/07/07 03:05:14;;;;;;;8.75;3.00;;;16.60;99.90;;;;;;5073528;28;20086;-69
2022/07/07 03:07:40;;;;;;;11.70;3.13;;;16.60;99.90;;;;;;5073472;28;20052;-69
2022/07/07 03:10:07;;;;;;;11.77;3.30;;;16.50;99.90;;;;;;5070774;28;20434;-69
2022/07/07 03:12:33;;;;;;;12.35;3.53;;;16.60;99.90;;;;;;5052368;28;20396;-69
2022/07/07 03:14:59;;;;;;;8.60;3.00;;;16.60;99.90;;;;;;5071748;28;20048;-69
2022/07/07 03:17:24;;;;;;;11.52;3.47;;;17.30;99.90;;;;;;5079355;28;20047;-69
2022/07/07 03:19:50;;;;;;;8.57;3.10;;;16.60;99.90;;;;;;5090718;28;20047;-70
2022/07/07 03:22:15;;;;;;;12.43;3.28;;;16.60;99.90;;;;;;5084149;28;20058;-70
2022/07/07 03:24:41;;;;;;;12.40;3.20;;;16.50;99.90;;;;;;5089110;28;20391;-69
2022/07/07 03:27:07;;;;;;;11.18;2.65;;;16.50;99.90;;;;;;5059712;28;20135;-69
2022/07/07 03:29:33;;;;;;;10.65;2.75;;;16.60;99.90;;;;;;5090194;28;20040;-69
2022/07/07 03:31:59;;;;;;;7.53;2.00;;;16.80;99.90;;;;;;5089530;28;20083;-69
2022/07/07 03:34:24;;;;;;;11.63;2.70;;;16.40;99.90;;;;;;5089272;28;20051;-68
2022/07/07 03:36:50;;;;;;;11.40;2.22;;;16.40;99.90;;;;;;5089063;28;20112;-69
2022/07/07 03:39:16;;;;;;;11.85;2.17;;;16.40;99.90;;;;;;5058927;28;20110;-69
2022/07/07 03:41:42;;;;;;;9.30;1.90;;;16.30;99.90;;;;;;5069130;28;20135;-69
2022/07/07 03:44:07;;;;;;;12.10;2.40;;;16.30;99.90;;;;;;5070327;28;20079;-71
2022/07/07 03:46:33;;;;;;;9.57;2.13;;;16.20;99.90;;;;;;5063094;28;20749;-72
2022/07/07 03:48:59;;;;;;;8.50;1.80;;;16.20;99.90;;;;;;5070220;28;20040;-71
2022/07/07 03:51:24;;;;;;;6.53;1.80;;;16.30;99.90;;;;;;5069399;28;20056;-71
2022/07/07 03:53:50;;;;;;;6.70;1.70;;;16.20;99.90;;;;;;5070560;28;20044;-69
2022/07/07 03:56:15;;;;;;;7.32;1.70;;;16.10;99.90;;;;;;5068767;28;20446;-69
2022/07/07 03:58:41;;;;;;;6.78;1.52;;;16.10;99.90;;;;;;5084866;28;20047;-68
2022/07/07 04:01:06;;;;;;;6.43;1.70;;;16.10;99.90;;;;;;5089832;28;20044;-68
2022/07/07 04:03:32;;;;;;;9.13;1.60;;;16.20;99.90;;;;;;5076273;28;20049;-69
2022/07/07 04:05:58;;;;;;;9.55;1.75;;;16.00;99.90;;;;;;5069100;28;20183;-69
2022/07/07 04:08:24;;;;;;;5.93;1.70;;;16.00;99.90;;;;;;5068068;28;20105;-69
2022/07/07 04:10:49;;;;;;;9.55;2.08;;;16.10;99.90;;;;;;5071911;28;20074;-68
2022/07/07 04:13:15;;;;;;;9.13;2.20;;;16.00;99.90;;;;;;5070246;28;20072;-68
2022/07/07 04:15:40;;;;;;;8.40;2.20;;;16.00;99.90;;;;;;5052445;28;20103;-71
2022/07/07 04:18:06;;;;;;;9.05;1.70;;;16.40;99.90;;;;;;5064572;28;20044;-68
2022/07/07 04:20:32;;;;;;;8.95;2.10;;;16.00;99.90;;;;;;5089472;28;20032;-69
2022/07/07 04:22:58;;;;;;;6.80;1.88;;;15.90;99.90;;;;;;5070299;28;20048;-69
2022/07/07 04:25:23;;;;;;;9.43;2.15;;;15.80;99.90;;;;;;5090803;28;20483;-70
2022/07/07 04:27:49;;;;;;;14.30;2.50;;;15.90;99.90;;;;;;5071320;28;20039;-70
2022/07/07 04:30:15;;;;;;;13.43;2.30;;;15.80;99.90;;;;;;5089702;28;20138;-69
2022/07/07 04:32:41;;;;;;;12.93;2.42;;;15.80;99.90;;;;;;5089313;28;20067;-69
2022/07/07 04:35:07;;;;;;;13.35;2.65;;;15.80;99.90;;;;;;5086267;28;20040;-70
2022/07/07 04:37:33;;;;;;;11.07;2.47;;;15.80;99.90;;;;;;5069725;28;20093;-69
2022/07/07 04:39:58;;;;;;;9.60;2.50;;;15.80;99.90;;;;;;5050120;28;20212;-69
2022/07/07 04:42:24;;;;;;;13.77;2.17;;;15.80;99.90;;;;;;5068103;28;20512;-69
2022/07/07 04:44:50;;;;;;;9.73;2.33;;;15.80;99.90;;;;;;5034248;28;20541;-69
2022/07/07 04:47:16;;;;;;;12.45;1.92;;;15.90;99.90;;;;;;5078495;28;20040;-69
2022/07/07 04:49:42;;;;;;;7.10;1.95;;;15.70;99.90;;;;;;5068309;28;20053;-69
2022/07/07 04:52:08;;;;;;;11.48;2.00;;;15.70;99.90;;;;;;5066365;28;20066;-69
2022/07/07 04:54:34;;;;;;;9.85;2.28;;;15.80;99.90;;;;;;5087708;28;20044;-70
2022/07/07 04:56:59;;;;;;;8.32;2.00;;;15.80;99.90;;;;;;5055063;28;20052;-69
2022/07/07 04:59:25;;;;;;;12.38;2.17;;;15.90;99.90;;;;;;5091582;28;20310;-71
2022/07/07 05:01:50;;;;;;;14.00;2.47;;;15.90;99.90;;;;;;5090280;28;20044;-69
2022/07/07 05:04:16;;;;;;;10.77;2.20;;;16.40;99.90;;;;;;5076553;28;20035;-70
2022/07/07 05:06:42;;;;;;;7.80;2.20;;;15.90;99.90;;;;;;5067694;28;20079;-69
2022/07/07 05:09:07;;;;;;;9.63;2.28;;;16.00;99.90;;;;;;5067532;28;20496;-70
2022/07/07 05:11:33;;;;;;;11.93;2.47;;;15.90;99.90;;;;;;5069270;28;20542;-70
2022/07/07 05:13:58;;;;;;;14.82;2.45;;;15.90;99.90;;;;;;5069150;28;20048;-70
2022/07/07 05:16:24;;;;;;;12.25;2.60;;;16.50;99.90;;;;;;5083645;28;20126;-69
2022/07/07 05:18:50;;;;;;;11.68;2.70;;;15.90;99.90;;;;;;5069745;28;20048;-69
2022/07/07 05:21:15;;;;;;;11.82;2.53;;;15.80;99.90;;;;;;5067377;28;20049;-69
2022/07/07 05:23:41;;;;;;;11.95;2.83;;;15.80;99.90;;;;;;5066391;28;20048;-69
2022/07/07 05:26:06;;;;;;;9.80;2.70;;;16.40;99.90;;;;;;5049419;28;20055;-69
2022/07/07 05:28:33;;;;;;;16.55;2.95;;;15.80;99.90;;;;;;5069675;28;20043;-68
2022/07/07 05:30:59;;;;;;;13.88;2.95;;;15.90;99.90;;;;;;5057087;28;20144;-70
2022/07/07 05:33:24;;;;;;;13.13;3.03;;;15.90;99.90;;;;;;5079406;28;20043;-70
2022/07/07 05:35:50;;;;;;;9.65;2.53;;;15.90;99.90;;;;;;5083704;28;20469;-69
2022/07/07 05:38:16;;;;;;;11.95;2.92;;;15.90;99.90;;;;;;5086122;28;20124;-69
2022/07/07 05:40:41;;;;;;;12.43;3.05;;;15.90;99.90;;;;;;5063501;28;20059;-69
2022/07/07 05:43:08;;;;;;;15.95;3.40;;;16.00;99.90;;;;;;5086788;28;20342;-70
2022/07/07 05:45:33;;;;;;;10.93;2.88;;;16.00;99.90;;;;;;5087850;28;20050;-70
2022/07/07 05:47:59;;;;;;;16.77;2.65;;;16.00;99.90;;;;;;5086696;28;20114;-69
2022/07/07 05:50:25;;;;;;;13.68;3.15;;;16.10;99.90;;;;;;5087182;28;20357;-70
2022/07/07 05:52:50;;;;;;;10.52;2.35;;;16.10;99.90;;;;;;5069134;28;20476;-70
2022/07/07 05:55:16;;;;;;;11.57;2.30;;;16.10;99.90;;;;;;5085982;28;20032;-69
2022/07/07 05:57:42;;;;;;;9.10;2.67;;;16.20;99.90;;;;;;5084865;28;20071;-69
2022/07/07 06:00:08;;;;;;;9.05;2.30;;;16.80;99.90;;;;;;5084202;28;20084;-69
2022/07/07 06:02:34;;;;;;;16.23;3.45;;;16.20;99.90;;;;;;5073663;28;20060;-69
2022/07/07 06:04:59;;;;;;;8.25;2.45;;;16.30;99.90;;;;;;5066805;28;20449;-70
2022/07/07 06:07:25;;;;;;;11.68;2.42;;;16.20;99.90;;;;;;5067025;28;20040;-70
2022/07/07 06:09:50;;;;;;;11.57;2.60;;;16.30;99.90;;;;;;5049338;28;20040;-69
2022/07/07 06:12:16;;;;;;;9.10;2.13;;;16.50;99.90;;;;;;5065675;28;20048;-71
2022/07/07 06:14:42;;;;;;;8.80;2.03;;;16.30;99.90;;;;;;5063952;28;20347;-70
2022/07/07 06:17:07;;;;;;;8.85;2.38;;;16.60;99.90;;;;;;5047084;28;20040;-71
2022/07/07 06:19:33;;;;;;;9.30;2.33;;;16.50;99.90;;;;;;5068248;28;20414;-69
2022/07/07 06:21:59;;;;;;;8.00;1.95;;;16.60;99.90;;;;;;5087305;28;20135;-70
2022/07/07 06:24:24;;;;;;;7.72;2.38;;;16.60;99.90;;;;;;5066646;28;20369;-70
2022/07/07 06:26:50;;;;;;;8.05;1.75;;;16.70;99.90;;;;;;5086874;28;20408;-70
2022/07/07 06:29:17;;;;;;;9.50;1.80;;;16.70;99.90;;;;;;5084813;28;20045;-71
2022/07/07 06:31:42;;;;;;;6.95;1.83;;;16.80;99.90;;;;;;5065871;28;20064;-71
2022/07/07 06:34:08;;;;;;;6.75;2.08;;;16.90;99.90;;;;;;5067601;28;20537;-71
2022/07/07 06:36:33;;;;;;;10.60;2.30;;;17.00;99.90;;;;;;5047806;28;20505;-69
2022/07/07 06:38:59;;;;;;;8.90;2.30;;;17.00;99.90;;;;;;5049688;28;20060;-70
2022/07/07 06:41:34;;;;;;;9.70;1.90;;;17.00;99.90;;;;;;5067224;28;20144;-70
2022/07/07 06:44:00;;;;;;;11.60;2.40;;;17.00;99.90;;;;;;5082184;28;20048;-70
2022/07/07 06:46:25;;;;;;;7.53;1.73;;;16.90;99.90;;;;;;5067751;28;20071;-71
2022/07/07 06:48:51;;;;;;;7.72;1.88;;;17.00;99.90;;;;;;5087679;28;20040;-71
2022/07/07 06:51:16;;;;;;;9.25;2.03;;;17.00;99.90;;;;;;5086487;28;20113;-70
2022/07/07 06:53:42;;;;;;;3.75;1.35;;;17.80;99.90;;;;;;5086073;28;20044;-70
2022/07/07 06:56:08;;;;;;;8.02;1.58;;;16.80;99.90;;;;;;5086845;28;20048;-70
2022/07/07 06:58:33;;;;;;;3.85;1.30;;;16.80;99.90;;;;;;5077666;28;20451;-70
2022/07/07 07:00:59;;;;;;;5.05;1.38;;;16.80;99.90;;;;;;5074945;28;20500;-70
2022/07/07 07:03:24;;;;;;;5.72;1.50;;;16.90;99.90;;;;;;5070507;28;20424;-70
2022/07/07 07:05:50;;;;;;;5.43;1.50;;;16.90;99.90;;;;;;5070563;28;20040;-70
2022/07/07 07:08:16;;;;;;;5.97;1.40;;;17.10;99.90;;;;;;5068779;28;20159;-70
2022/07/07 07:10:41;;;;;;;5.97;1.50;;;17.20;99.90;;;;;;5070105;28;20385;-70
2022/07/07 07:13:07;;;;;;;3.58;1.20;;;17.10;99.90;;;;;;5034916;28;20458;-69
2022/07/07 07:15:32;;;;;;;4.38;1.15;;;17.10;99.90;;;;;;5069691;28;20194;-70
2022/07/07 07:18:03;;;;;;;1.50;0.95;;;16.90;99.90;;;;;;5069957;28;20052;-69
2022/07/07 07:20:29;;;;;;;5.00;1.05;;;17.10;99.90;;;;;;5091231;28;20044;-69
2022/07/07 07:22:55;;;;;;;5.35;1.10;;;17.20;99.90;;;;;;5088831;28;20048;-70
2022/07/07 07:25:20;;;;;;;2.72;1.10;;;17.40;99.90;;;;;;5091782;28;20036;-69
2022/07/07 07:27:46;;;;;;;2.97;1.00;;;17.60;99.90;;;;;;5081933;28;20378;-69
2022/07/07 07:30:14;;;;;;;5.05;1.33;;;17.80;99.90;;;;;;5067895;28;20086;-68
2022/07/07 07:32:40;;;;;;;3.95;1.20;;;17.80;99.90;;;;;;5071574;28;20059;-68
2022/07/07 07:35:06;;;;;;;4.68;1.40;;;18.00;99.90;;;;;;5052873;28;20036;-69
2022/07/07 07:37:31;;;;;;;5.93;1.50;;;18.10;99.90;;;;;;5067988;28;20094;-69
2022/07/07 07:39:57;;;;;;;6.03;1.58;;;18.20;99.90;;;;;;5068680;28;20045;-69
2022/07/07 07:42:22;;;;;;;5.68;1.25;;;18.30;99.90;;;;;;5068436;28;20036;-70
2022/07/07 07:47:32;;;;;;;6.60;1.42;;;18.10;99.90;;;;;;5067283;28;20369;-69
2022/07/07 07:49:58;;;;;;;6.00;1.50;;;17.80;99.90;;;;;;5067609;28;20139;-69
2022/07/07 07:52:23;;;;;;;5.43;1.80;;;17.60;99.90;;;;;;5067708;28;20318;-70
2022/07/07 07:54:49;;;;;;;7.57;1.40;;;17.50;99.90;;;;;;5068658;28;20032;-71
2022/07/07 07:57:14;;;;;;;8.00;1.80;;;17.80;99.90;;;;;;5068104;28;20040;-68
2022/07/07 07:59:40;;;;;;;9.98;1.70;;;17.40;99.90;;;;;;5090255;28;20040;-68
2022/07/07 08:02:06;;;;;;;9.43;1.90;;;17.60;99.90;;;;;;5074891;28;20119;-69
2022/07/07 08:04:32;;;;;;;7.22;1.67;;;17.70;99.90;;;;;;5051612;28;20041;-69
2022/07/07 08:06:58;;;;;;;5.65;1.70;;;17.80;99.90;;;;;;5077611;28;20507;-70
2022/07/07 08:09:24;;;;;;;5.65;1.55;;;17.80;99.90;;;;;;5075129;28;20481;-70
2022/07/07 08:11:49;;;;;;;7.78;1.80;;;17.80;99.90;;;;;;5044775;28;20389;-69
2022/07/07 08:14:15;;;;;;;7.18;1.70;;;18.70;99.90;;;;;;5062693;28;20041;-69
2022/07/07 08:16:41;;;;;;;6.38;1.67;;;18.30;99.90;;;;;;5069198;28;20067;-69
2022/07/07 08:19:06;;;;;;;8.55;1.75;;;18.30;99.90;;;;;;5068453;28;20080;-70
2022/07/07 08:21:32;;;;;;;5.85;1.73;;;18.40;99.90;;;;;;5068277;28;20032;-69
2022/07/07 08:23:58;;;;;;;7.25;1.83;;;18.30;99.90;;;;;;5068599;28;20117;-70
2022/07/07 08:26:23;;;;;;;8.82;1.98;;;18.50;99.90;;;;;;5050766;28;20436;-70
2022/07/07 08:28:49;;;;;;;5.90;1.70;;;18.40;99.90;;;;;;5068010;28;20035;-69
2022/07/07 08:31:14;;;;;;;9.18;2.05;;;18.40;99.90;;;;;;5067607;28;20052;-69
2022/07/07 08:33:40;;;;;;;6.40;1.90;;;18.50;99.90;;;;;;5068545;28;20080;-70
2022/07/07 08:36:06;;;;;;;7.28;2.10;;;18.50;99.90;;;;;;5068093;28;20051;-70
2022/07/07 08:38:31;;;;;;;10.55;2.40;;;18.40;99.90;;;;;;5067630;28;20045;-70
2022/07/07 08:40:57;;;;;;;8.52;2.30;;;18.40;99.90;;;;;;5068579;28;20123;-70
2022/07/07 08:43:23;;;;;;;7.28;2.35;;;18.30;99.90;;;;;;5068601;28;20048;-70
2022/07/07 08:45:48;;;;;;;8.48;2.40;;;18.20;99.90;;;;;;5068235;28;20059;-70
2022/07/07 08:48:14;;;;;;;11.38;2.67;;;18.10;99.90;;;;;;5068586;28;20040;-70
2022/07/07 08:50:40;;;;;;;13.43;2.35;;;18.70;99.90;;;;;;5068743;28;20443;-70
2022/07/07 08:53:08;;;;;;;9.73;2.72;;;18.90;99.90;;;;;;5067127;28;20120;-70
2022/07/07 08:55:35;;;;;;;8.48;2.10;;;18.70;99.90;;;;;;5068934;28;20094;-70
2022/07/07 08:58:01;;;;;;;7.80;2.38;;;18.70;99.90;;;;;;5069893;28;20036;-68
2022/07/07 09:00:27;;;;;;;10.23;2.40;;;18.50;99.90;;;;;;5072190;28;20045;-70
2022/07/07 09:02:57;;;;;;;9.40;2.33;;;18.60;99.90;;;;;;5048985;28;20560;-70
2022/07/07 09:05:23;;;;;;;6.95;1.98;;;19.30;99.90;;;;;;5030670;28;20426;-70
2022/07/07 09:07:50;;;;;;;6.43;1.77;;;18.20;99.90;;;;;;5046651;28;20524;-70
2022/07/07 09:10:28;;;;;;;6.75;1.77;;;18.10;99.90;;;;;;5059137;28;20544;-70
2022/07/07 09:12:54;;;;;;;5.97;1.75;;;18.10;99.90;;;;;;5066494;28;20044;-70
2022/07/07 09:15:20;;;;;;;6.35;1.80;;;18.30;99.90;;;;;;5066429;28;20113;-71
2022/07/07 09:17:46;;;;;;;10.13;1.77;;;18.60;99.90;;;;;;5067484;28;20345;-70
2022/07/07 09:20:12;;;;;;;7.38;1.58;;;19.00;99.90;;;;;;5066587;28;20056;-70
2022/07/07 09:22:45;;;;;;;5.85;1.65;;;19.20;99.90;;;;;;5047148;28;20052;-71
2022/07/07 09:25:12;;;;;;;9.25;1.90;;;19.10;99.90;;;;;;5067507;28;20052;-71
2022/07/07 09:27:58;;;;;;;10.70;2.03;;;19.30;99.90;;;;;;5066718;28;20115;-71
2022/07/07 09:30:33;;;;;;;8.95;2.10;;;19.30;99.90;;;;;;5049606;28;20063;-71
2022/07/07 09:33:07;;;;;;;8.98;1.90;;;19.50;99.90;;;;;;5067939;28;20047;-82
2022/07/07 09:38:23;;;;;;;10.43;2.03;;;19.40;99.90;;;;;;5065954;28;20509;-71
2022/07/07 09:40:59;;;;;;;7.15;2.03;;;19.20;99.90;;;;;;5047906;28;20109;-71
2022/07/07 09:43:26;;;;;;;10.27;2.58;;;19.20;99.90;;;;;;5049481;28;20048;-71
2022/07/07 09:46:23;;;;;;;9.70;2.30;;;19.10;99.90;;;;;;5050328;28;20048;-71
2022/07/07 09:48:53;;;;;;;7.97;1.70;;;18.90;99.90;;;;;;5047751;28;20223;-71
2022/07/07 09:51:27;;;;;;;8.30;1.95;;;18.60;99.90;;;;;;5059175;28;20185;-71
2022/07/07 09:53:57;;;;;;;4.93;1.42;;;18.30;99.90;;;;;;5070433;28;20097;-71
2022/07/07 09:56:29;;;;;;;6.03;1.40;;;18.30;99.90;;;;;;5067497;28;20433;-71
2022/07/07 09:58:55;;;;;;;6.10;1.27;;;18.30;99.90;;;;;;5067931;28;20037;-71
2022/07/07 10:01:24;;;;;;;7.43;1.60;;;18.50;99.90;;;;;;5066865;28;20098;-72
2022/07/07 10:03:58;;;;;;;6.75;1.48;;;18.60;99.90;;;;;;5067518;28;20044;-71
2022/07/07 10:06:28;;;;;;;7.78;1.70;;;18.90;99.90;;;;;;5066271;28;20044;-72
2022/07/07 10:09:00;;;;;;;6.07;1.60;;;19.00;99.90;;;;;;5067643;28;20048;-71
2022/07/07 10:11:38;;;;;;;4.47;1.50;;;19.20;99.90;;;;;;5066133;28;20059;-71
2022/07/07 10:14:16;;;;;;;5.40;1.50;;;19.20;99.90;;;;;;5067399;28;20139;-71
2022/07/07 10:16:44;;;;;;;7.30;2.00;;;18.90;99.90;;;;;;5066926;28;20040;-71
2022/07/07 10:19:12;;;;;;;8.90;1.88;;;19.40;99.90;;;;;;5067803;28;20045;-70
2022/07/07 10:21:42;;;;;;;7.40;1.95;;;19.50;99.90;;;;;;5066297;28;20041;-71
2022/07/07 10:24:09;;;;;;;9.00;2.40;;;19.60;99.90;;;;;;5028887;28;20045;-70
2022/07/07 10:26:46;;;;;;;15.82;2.40;;;19.70;99.90;;;;;;5046727;28;20168;-71
2022/07/07 10:29:12;;;;;;;15.52;2.80;;;19.10;99.90;;;;;;5048047;28;20041;-71
2022/07/07 10:31:38;;;;;;;13.30;2.13;;;18.80;99.90;;;;;;5060968;28;20148;-71
2022/07/07 10:34:06;;;;;;;11.77;2.63;;;18.80;99.90;;;;;;5049131;28;20059;-71
2022/07/07 10:36:49;;;;;;;12.15;2.42;;;18.80;99.90;;;;;;5049817;28;20363;-71
2022/07/07 10:39:23;;;;;;;6.25;1.88;;;18.70;99.90;;;;;;5049743;28;20045;-71
2022/07/07 10:42:16;;;;;;;9.55;2.28;;;18.70;99.90;;;;;;5050475;28;20040;-69
2022/07/07 10:44:51;;;;;;;13.57;2.40;;;18.60;99.90;;;;;;5050436;28;20075;-69
2022/07/07 10:47:16;;;;;;;12.98;2.90;;;18.50;99.90;;;;;;5050633;28;20358;-70
2022/07/07 10:49:43;;;;;;;13.55;3.08;;;18.70;99.90;;;;;;5051106;28;20073;-69
2022/07/07 10:52:10;;;;;;;16.77;3.47;;;18.60;99.90;;;;;;5084167;28;20037;-72
2022/07/07 10:54:40;;;;;;;17.70;3.00;;;18.30;99.90;;;;;;5054214;28;20065;-69
2022/07/07 10:57:13;;;;;;;15.45;3.00;;;18.40;99.90;;;;;;5069684;28;20048;-71
2022/07/07 11:00:30;;;;;;;11.98;2.55;;;18.50;99.90;;;;;;5069706;28;20567;-70
2022/07/07 11:03:05;;;;;;;13.10;2.60;;;18.70;99.90;;;;;;5068471;28;20362;-71
2022/07/07 11:05:32;;;;;;;14.85;2.97;;;18.80;99.90;;;;;;5070887;28;20047;-71
2022/07/07 11:07:59;;;;;;;13.48;2.88;;;18.70;99.90;;;;;;5069046;28;20115;-70
2022/07/07 11:10:37;;;;;;;13.88;2.72;;;18.60;99.90;;;;;;5070567;28;20051;-71
2022/07/07 11:13:28;;;;;;;15.80;2.85;;;18.60;99.90;;;;;;5068764;28;20084;-70
2022/07/07 11:16:10;;;;;;;13.90;2.90;;;18.40;99.90;;;;;;5070464;28;20489;-71
2022/07/07 11:18:37;;;;;;;14.02;2.83;;;18.30;99.90;;;;;;5085761;28;20048;-70
2022/07/07 11:21:05;;;;;;;13.27;2.63;;;18.30;99.90;;;;;;5068714;28;20044;-71
2022/07/07 11:23:47;;;;;;;17.23;3.25;;;18.30;99.90;;;;;;5054608;28;20516;-70
2022/07/07 11:26:18;;;;;;;11.30;2.40;;;18.30;99.90;;;;;;5049643;28;20059;-70
2022/07/07 11:28:44;;;;;;;12.20;2.60;;;18.30;99.90;;;;;;5049769;28;20392;-71
2022/07/07 11:31:10;;;;;;;8.02;2.28;;;18.30;99.90;;;;;;5049781;28;20088;-70
2022/07/07 11:33:36;;;;;;;11.02;2.50;;;18.60;99.90;;;;;;5032296;28;20421;-70
2022/07/07 11:36:15;;;;;;;9.70;2.10;;;18.70;99.90;;;;;;5030656;28;20041;-70
2022/07/07 11:38:42;;;;;;;11.07;2.42;;;18.80;99.90;;;;;;5053245;28;20485;-70
2022/07/07 11:41:08;;;;;;;9.40;2.20;;;19.10;99.90;;;;;;5014406;28;20045;-71
2022/07/07 11:43:34;;;;;;;8.00;2.15;;;19.90;99.90;;;;;;5049693;28;20436;-71
2022/07/07 11:45:59;;;;;;;8.52;2.00;;;19.70;99.90;;;;;;5030425;28;20434;-70
2022/07/07 11:48:36;;;;;;;11.63;2.17;;;19.80;99.90;;;;;;5049339;28;20075;-70
2022/07/07 11:51:01;;;;;;;9.73;2.30;;;19.80;99.90;;;;;;5051101;28;20497;-71
2022/07/07 11:53:27;;;;;;;8.52;2.17;;;19.90;99.90;;;;;;5030912;28;20044;-71
2022/07/07 11:55:53;;;;;;;5.88;1.95;;;20.20;99.90;;;;;;5049163;28;20076;-70
2022/07/07 11:58:18;;;;;;;8.35;2.10;;;21.40;99.90;;;;;;5049813;28;20052;-71
2022/07/07 12:00:44;;;;;;;10.32;2.42;;;22.90;99.90;;;;;;5049303;28;20382;-70
2022/07/07 12:03:10;;;;;;;8.32;2.30;;;23.20;99.90;;;;;;5048486;28;20124;-71
2022/07/07 12:05:38;;;;;;;10.65;2.33;;;23.10;99.90;;;;;;5051435;28;20069;-70
2022/07/07 12:08:08;;;;;;;10.52;2.33;;;22.70;99.90;;;;;;5048673;28;20375;-71
2022/07/07 12:10:38;;;;;;;15.00;2.70;;;22.10;99.90;;;;;;5048337;28;20041;-71
2022/07/07 12:13:08;;;;;;;13.60;3.08;;;21.60;99.90;;;;;;5047161;28;20050;-71
2022/07/07 12:15:36;;;;;;;13.48;2.58;;;21.00;99.90;;;;;;5068371;28;20067;-70
2022/07/07 12:18:03;;;;;;;11.27;2.90;;;20.80;99.90;;;;;;5065344;28;20049;-70
2022/07/07 12:20:29;;;;;;;13.75;3.10;;;20.40;99.90;;;;;;5048775;28;20044;-71
2022/07/07 12:22:57;;;;;;;12.70;2.90;;;20.10;99.90;;;;;;5048311;28;20448;-71
2022/07/07 12:25:33;;;;;;;17.20;2.88;;;20.10;99.90;;;;;;5048324;28;20060;-70
2022/07/07 12:28:01;;;;;;;11.48;2.38;;;20.00;99.90;;;;;;5065039;28;20099;-70
2022/07/07 12:30:32;;;;;;;14.27;2.47;;;19.80;99.90;;;;;;5063990;28;20458;-70
2022/07/07 12:32:58;;;;;;;9.20;2.47;;;19.90;99.90;;;;;;5048609;28;20397;-70
2022/07/07 12:35:35;;;;;;;14.63;2.40;;;19.80;99.90;;;;;;5049431;28;20081;-69
2022/07/07 12:38:03;;;;;;;11.10;2.50;;;20.10;99.90;;;;;;5049477;28;20049;-70
2022/07/07 12:40:30;;;;;;;10.85;2.50;;;20.00;99.90;;;;;;5049789;28;20144;-69
2022/07/07 12:43:03;;;;;;;10.02;2.60;;;20.10;99.90;;;;;;5048304;28;20051;-70
2022/07/07 12:45:30;;;;;;;8.75;2.20;;;20.40;99.90;;;;;;5030175;28;20045;-70
2022/07/07 12:47:56;;;;;;;14.38;2.47;;;20.00;99.90;;;;;;5048212;28;20120;-71
2022/07/07 12:50:23;;;;;;;12.88;2.67;;;20.10;99.90;;;;;;5049679;28;20119;-70